createdAt,value
2018-10-09T00:00:13.239Z,25.33
2018-10-09T00:03:17.097Z,23.57
2018-10-09T00:06:21.545Z,24.77
2018-10-09T00:09:25.747Z,25.27
2018-10-09T00:12:30.074Z,24.73
2018-10-09T00:15:34.273Z,22.97
2018-10-09T00:18:38.462Z,23.63
2018-10-09T00:21:42.831Z,22.43
2018-10-09T00:24:47.153Z,22.23
2018-10-09T00:27:51.461Z,23.17
2018-10-09T00:30:56.397Z,22.80
2018-10-09T00:34:00.848Z,22.57
2018-10-09T00:37:05.063Z,24.10
2018-10-09T00:40:09.479Z,24.40
2018-10-09T00:43:13.663Z,24.40
2018-10-09T00:46:17.799Z,24.33
2018-10-09T00:49:22.174Z,23.70
2018-10-09T00:52:26.377Z,26.77
2018-10-09T00:55:30.561Z,23.00
2018-10-09T00:58:34.936Z,25.23
2018-10-09T01:01:39.376Z,23.10
2018-10-09T01:04:43.685Z,25.40
2018-10-09T01:07:48.032Z,23.10
2018-10-09T01:10:52.531Z,22.73
2018-10-09T01:13:56.735Z,23.07
2018-10-09T01:17:01.045Z,21.70
2018-10-09T01:20:05.372Z,23.63
2018-10-09T01:23:09.714Z,23.30
2018-10-09T01:26:14.159Z,21.87
2018-10-09T01:29:18.547Z,21.33
2018-10-09T01:32:22.837Z,20.80
2018-10-09T01:35:26.973Z,21.90
2018-10-09T01:38:31.425Z,21.77
2018-10-09T01:41:35.637Z,18.50
2018-10-09T01:44:39.947Z,22.13
2018-10-09T01:47:44.297Z,21.10
2018-10-09T01:50:48.670Z,21.03
2018-10-09T01:53:52.945Z,21.87
2018-10-09T01:56:57.197Z,21.70
2018-10-09T02:00:01.711Z,20.93
2018-10-09T02:03:06.030Z,22.30
2018-10-09T02:06:10.534Z,21.37
2018-10-09T02:09:14.767Z,21.40
2018-10-09T02:12:19.075Z,23.10
2018-10-09T02:15:23.309Z,20.90
2018-10-09T02:18:27.744Z,20.97
2018-10-09T02:21:32.223Z,22.60
2018-10-09T02:24:36.931Z,22.93
2018-10-09T02:27:41.248Z,23.43
2018-10-09T02:30:45.493Z,22.70
2018-10-09T02:33:49.754Z,23.03
2018-10-09T02:36:54.145Z,23.83
2018-10-09T02:39:58.669Z,22.60
2018-10-09T02:43:03.031Z,22.47
2018-10-09T02:46:07.274Z,22.73
2018-10-09T02:49:11.523Z,22.10
2018-10-09T02:52:16.193Z,22.70
2018-10-09T02:55:20.410Z,24.20
2018-10-09T02:58:24.660Z,24.87
2018-10-09T03:01:28.943Z,24.90
2018-10-09T03:04:39.610Z,21.90
2018-10-09T03:07:44.514Z,25.33
2018-10-09T03:10:48.766Z,22.90
2018-10-09T03:13:53.027Z,23.77
2018-10-09T03:16:57.271Z,24.60
2018-10-09T03:20:01.733Z,25.00
2018-10-09T03:23:06.156Z,23.30
2018-10-09T03:26:10.587Z,24.10
2018-10-09T03:29:14.738Z,25.30
2018-10-09T03:32:18.791Z,24.77
2018-10-09T03:35:22.998Z,24.13
2018-10-09T03:38:27.248Z,23.67
2018-10-09T03:41:31.367Z,23.70
2018-10-09T03:44:35.474Z,25.50
2018-10-09T03:47:39.687Z,25.53
2018-10-09T03:50:43.984Z,28.73
2018-10-09T03:53:48.252Z,28.33
2018-10-09T03:56:52.424Z,30.37
2018-10-09T03:59:56.688Z,47.47
2018-10-09T04:03:00.985Z,33.27
2018-10-09T04:06:05.566Z,32.30
2018-10-09T04:09:12.204Z,28.47
2018-10-09T04:12:16.445Z,29.70
2018-10-09T04:15:20.834Z,24.83
2018-10-09T04:18:25.277Z,28.57
2018-10-09T04:21:29.512Z,29.17
2018-10-09T04:24:33.768Z,27.40
2018-10-09T04:27:38.010Z,25.30
2018-10-09T04:30:42.376Z,30.53
2018-10-09T04:33:46.724Z,28.17
2018-10-09T04:36:50.776Z,30.07
2018-10-09T04:39:54.926Z,30.87
2018-10-09T04:42:59.287Z,28.13
2018-10-09T04:46:03.587Z,31.77
2018-10-09T04:49:07.936Z,32.23
2018-10-09T04:52:12.218Z,31.00
2018-10-09T04:55:16.530Z,33.73
2018-10-09T04:58:20.510Z,27.57
2018-10-09T05:01:24.861Z,29.40
2018-10-09T05:04:29.178Z,27.67
2018-10-09T05:07:33.512Z,29.63
2018-10-09T05:10:37.796Z,29.33
2018-10-09T05:13:42.094Z,27.07
2018-10-09T05:16:46.145Z,27.47
2018-10-09T05:19:50.387Z,35.17
2018-10-09T05:22:55.011Z,34.30
2018-10-09T05:25:59.256Z,33.17
2018-10-09T05:29:03.668Z,32.10
2018-10-09T05:32:08.648Z,37.07
2018-10-09T05:35:12.951Z,38.80
2018-10-09T05:38:17.295Z,34.83
2018-10-09T05:41:21.564Z,34.23
2018-10-09T05:44:26.005Z,31.57
2018-10-09T05:47:30.142Z,31.40
2018-10-09T05:50:34.419Z,30.20
2018-10-09T05:53:38.749Z,30.63
2018-10-09T05:56:43.194Z,30.37
2018-10-09T05:59:47.521Z,29.63
2018-10-09T06:02:51.851Z,30.60
2018-10-09T06:05:56.243Z,30.70
2018-10-09T06:09:00.742Z,35.10
2018-10-09T06:12:05.113Z,33.57
2018-10-09T06:15:09.479Z,36.93
2018-10-09T06:18:14.062Z,34.73
2018-10-09T06:21:18.321Z,31.03
2018-10-09T06:24:22.494Z,29.50
2018-10-09T06:27:26.715Z,29.50
2018-10-09T06:30:31.036Z,35.87
2018-10-09T06:33:35.343Z,33.50
2018-10-09T06:36:39.809Z,28.67
2018-10-09T06:39:44.187Z,30.07
2018-10-09T06:42:48.583Z,27.50
2018-10-09T06:45:52.882Z,30.63
2018-10-09T06:48:57.115Z,30.80
2018-10-09T06:52:01.762Z,32.17
2018-10-09T06:55:05.801Z,28.73
2018-10-09T06:58:10.185Z,31.73
2018-10-09T07:01:14.578Z,28.60
2018-10-09T07:04:18.674Z,32.77
2018-10-09T07:07:23.656Z,30.60
2018-10-09T07:10:27.973Z,35.30
2018-10-09T07:13:32.185Z,33.40
2018-10-09T07:16:36.689Z,32.40
2018-10-09T07:19:40.954Z,35.40
2018-10-09T07:22:45.482Z,32.87
2018-10-09T07:25:49.801Z,32.80
2018-10-09T07:28:54.284Z,37.20
2018-10-09T07:32:05.101Z,32.77
2018-10-09T07:35:15.956Z,32.97
2018-10-09T07:38:20.200Z,31.10
2018-10-09T07:41:24.675Z,33.63
2018-10-09T07:44:28.959Z,32.53
2018-10-09T07:47:33.175Z,32.37
2018-10-09T07:50:37.497Z,30.60
2018-10-09T07:53:42.213Z,32.00
2018-10-09T07:56:46.577Z,35.77
2018-10-09T07:59:51.062Z,33.90
2018-10-09T08:02:55.417Z,38.53
2018-10-09T08:05:59.627Z,32.10
2018-10-09T08:09:04.295Z,32.63
2018-10-09T08:12:08.679Z,31.27
2018-10-09T08:15:12.916Z,32.30
2018-10-09T08:18:17.159Z,36.90
2018-10-09T08:21:21.693Z,32.20
2018-10-09T08:24:26.038Z,32.03
2018-10-09T08:27:30.104Z,30.27
2018-10-09T08:30:34.473Z,35.80
2018-10-09T08:33:38.804Z,34.43
2018-10-09T08:36:42.863Z,35.53
2018-10-09T08:39:47.237Z,36.53
2018-10-09T08:42:51.304Z,36.10
2018-10-09T08:45:55.597Z,34.87
2018-10-09T08:49:00.234Z,35.33
2018-10-09T08:52:04.664Z,33.33
2018-10-09T08:55:08.668Z,32.88
2018-10-09T08:58:12.802Z,33.35
2018-10-09T09:01:16.968Z,32.78
2018-10-09T09:04:21.249Z,31.20
2018-10-09T09:07:25.722Z,29.35
2018-10-09T09:10:29.652Z,31.80
2018-10-09T09:13:33.829Z,30.63
2018-10-09T09:16:38.274Z,32.63
2018-10-09T09:19:42.184Z,33.65
2018-10-09T09:22:46.480Z,29.50
2018-10-09T09:25:50.385Z,31.52
2018-10-09T09:28:54.768Z,29.63
2018-10-09T09:31:59.077Z,29.87
2018-10-09T09:35:03.617Z,28.60
2018-10-09T09:38:07.716Z,27.30
2018-10-09T09:41:12.136Z,26.77
2018-10-09T09:44:16.155Z,26.05
2018-10-09T09:47:20.646Z,24.77
2018-10-09T09:50:24.929Z,25.37
2018-10-09T09:53:29.101Z,23.22
2018-10-09T09:56:33.368Z,22.70
2018-10-09T09:59:37.614Z,22.25
2018-10-09T10:02:41.538Z,24.27
2018-10-09T10:05:46.178Z,25.20
2018-10-09T10:08:50.393Z,26.33
2018-10-09T10:11:55.398Z,24.63
2018-10-09T10:14:59.670Z,25.00
2018-10-09T10:18:03.997Z,26.17
2018-10-09T10:21:08.092Z,24.65
2018-10-09T10:24:12.674Z,24.87
2018-10-09T10:27:16.984Z,24.95
2018-10-09T10:30:21.225Z,24.45
2018-10-09T10:33:25.382Z,24.32
2018-10-09T10:36:29.947Z,21.97
2018-10-09T10:39:35.323Z,22.67
2018-10-09T10:42:39.681Z,23.62
2018-10-09T10:45:44.031Z,24.95
2018-10-09T10:49:03.919Z,23.35
2018-10-09T10:52:07.957Z,25.02
2018-10-09T10:55:12.399Z,25.30
2018-10-09T10:58:16.595Z,24.55
2018-10-09T11:01:20.625Z,25.75
2018-10-09T11:04:24.834Z,22.25
2018-10-09T11:07:29.101Z,20.50
2018-10-09T11:10:33.312Z,20.67
2018-10-09T11:13:37.554Z,21.10
2018-10-09T11:16:41.902Z,21.33
2018-10-09T11:19:46.148Z,21.40
2018-10-09T11:22:50.400Z,20.05
2018-10-09T11:25:54.637Z,19.60
2018-10-09T11:28:59.040Z,19.50
2018-10-09T11:32:03.410Z,17.67
2018-10-09T11:35:07.971Z,15.38
2018-10-09T11:38:11.881Z,17.23
2018-10-09T11:41:15.786Z,16.77
2018-10-09T11:44:20.112Z,17.10
2018-10-09T11:47:24.277Z,16.20
2018-10-09T11:50:28.955Z,18.40
2018-10-09T11:53:33.378Z,17.50
2018-10-09T11:56:37.561Z,17.15
2018-10-09T11:59:41.440Z,15.70
2018-10-09T12:02:45.349Z,18.42
2018-10-09T12:05:49.868Z,15.72
2018-10-09T12:08:54.424Z,15.05
2018-10-09T12:11:58.776Z,15.30
2018-10-09T12:15:03.141Z,14.63
2018-10-09T12:18:07.455Z,15.73
2018-10-09T12:21:11.792Z,13.75
2018-10-09T12:24:16.164Z,14.55
2018-10-09T12:27:20.690Z,15.32
2018-10-09T12:30:24.885Z,15.65
2018-10-09T12:33:29.227Z,14.25
2018-10-09T12:36:33.569Z,13.18
2018-10-09T12:39:38.034Z,13.38
2018-10-09T12:42:41.986Z,14.78
2018-10-09T12:45:46.271Z,12.40
2018-10-09T12:48:50.487Z,11.70
2018-10-09T12:51:54.871Z,12.20
2018-10-09T12:54:59.195Z,12.43
2018-10-09T12:58:03.593Z,13.80
2018-10-09T13:01:08.124Z,13.72
2018-10-09T13:04:12.455Z,13.10
2018-10-09T13:07:16.829Z,13.60
2018-10-09T13:10:21.161Z,14.75
2018-10-09T13:13:25.391Z,15.18
2018-10-09T13:16:29.711Z,15.47
2018-10-09T13:19:33.982Z,16.80
2018-10-09T13:22:38.385Z,18.13
2018-10-09T13:25:43.337Z,16.70
2018-10-09T13:28:48.025Z,17.47
2018-10-09T13:31:52.164Z,18.80
2018-10-09T13:34:56.506Z,18.97
2018-10-09T13:38:00.841Z,19.23
2018-10-09T13:41:05.326Z,20.23
2018-10-09T13:44:09.473Z,19.43
2018-10-09T13:47:13.826Z,19.30
2018-10-09T13:50:17.709Z,19.07
2018-10-09T13:53:23.081Z,19.50
2018-10-09T13:56:27.334Z,19.73
2018-10-09T13:59:31.478Z,19.97
2018-10-09T14:02:35.806Z,21.30
2018-10-09T14:05:40.210Z,20.60
2018-10-09T14:08:44.343Z,21.30
2018-10-09T14:11:48.589Z,20.27
2018-10-09T14:14:52.903Z,21.07
2018-10-09T14:17:57.344Z,20.60
2018-10-09T14:21:01.716Z,21.23
2018-10-09T14:24:06.014Z,21.20
2018-10-09T14:27:10.177Z,20.80
2018-10-09T14:30:14.658Z,21.83
2018-10-09T14:33:18.975Z,20.53
2018-10-09T14:36:23.159Z,22.07
2018-10-09T14:39:27.465Z,19.97
2018-10-09T14:42:31.890Z,24.23
2018-10-09T14:45:36.287Z,21.13
2018-10-09T14:48:41.528Z,21.90
2018-10-09T14:51:45.921Z,22.70
2018-10-09T14:54:50.481Z,20.93
2018-10-09T14:57:55.010Z,21.90
2018-10-09T15:00:59.168Z,22.03
2018-10-09T15:04:03.504Z,22.20
2018-10-09T15:07:07.825Z,22.13
2018-10-09T15:10:12.235Z,22.23
2018-10-09T15:13:16.627Z,22.93
2018-10-09T15:16:20.913Z,21.93
2018-10-09T15:19:25.275Z,23.50
2018-10-09T15:22:29.546Z,24.03
2018-10-09T15:25:33.854Z,23.13
2018-10-09T15:28:38.102Z,21.63
2018-10-09T15:31:42.518Z,23.50
2018-10-09T15:34:46.426Z,23.53
2018-10-09T15:37:50.250Z,22.67
2018-10-09T15:40:54.195Z,24.20
2018-10-09T15:43:58.075Z,25.40
2018-10-09T15:47:02.566Z,22.20
2018-10-09T15:50:07.002Z,25.10
2018-10-09T15:53:11.364Z,24.03
2018-10-09T15:56:15.739Z,26.27
2018-10-09T15:59:20.114Z,24.87
2018-10-09T16:02:24.364Z,24.13
2018-10-09T16:05:28.707Z,25.97
2018-10-09T16:08:32.990Z,24.70
2018-10-09T16:11:37.262Z,25.93
2018-10-09T16:14:41.500Z,25.00
2018-10-09T16:17:45.769Z,25.10
2018-10-09T16:20:50.496Z,25.10
2018-10-09T16:23:54.772Z,24.83
2018-10-09T16:26:59.146Z,27.03
2018-10-09T16:30:03.678Z,26.03
2018-10-09T16:33:08.394Z,27.67
2018-10-09T16:36:12.912Z,25.60
2018-10-09T16:39:17.888Z,30.70
2018-10-09T16:42:22.097Z,26.40
2018-10-09T16:45:33.035Z,25.87
2018-10-09T16:48:44.585Z,27.70
2018-10-09T16:51:48.995Z,27.53
2018-10-09T16:54:53.173Z,28.20
2018-10-09T16:57:57.752Z,26.73
2018-10-09T17:01:02.052Z,28.23
2018-10-09T17:04:06.529Z,29.47
2018-10-09T17:07:10.891Z,27.47
2018-10-09T17:10:15.262Z,27.53
2018-10-09T17:13:19.611Z,25.73
2018-10-09T17:16:23.895Z,28.43
2018-10-09T17:19:28.097Z,27.63
2018-10-09T17:22:32.399Z,26.27
2018-10-09T17:25:36.518Z,27.77
2018-10-09T17:28:40.769Z,27.77
2018-10-09T17:31:45.183Z,28.37
2018-10-09T17:34:49.626Z,29.10
2018-10-09T17:37:53.985Z,29.67
2018-10-09T17:40:58.206Z,27.00
2018-10-09T17:44:02.513Z,29.20
2018-10-09T17:47:08.822Z,27.70
2018-10-09T17:50:13.233Z,30.57
2018-10-09T17:53:17.507Z,28.83
2018-10-09T17:56:21.974Z,30.93
2018-10-09T17:59:27.153Z,30.30
2018-10-09T18:02:31.484Z,32.37
2018-10-09T18:05:36.405Z,31.67
2018-10-09T18:08:40.700Z,29.90
2018-10-09T18:11:45.054Z,31.13
2018-10-09T18:14:49.670Z,30.97
2018-10-09T18:17:53.912Z,30.60
2018-10-09T18:20:58.378Z,30.50
2018-10-09T18:24:02.672Z,31.10
2018-10-09T18:27:07.077Z,31.03
2018-10-09T18:30:11.851Z,32.33
2018-10-09T18:33:16.313Z,32.90
2018-10-09T18:36:20.504Z,30.07
2018-10-09T18:39:24.712Z,31.57
2018-10-09T18:42:28.941Z,31.43
2018-10-09T18:45:33.343Z,30.87
2018-10-09T18:48:37.717Z,31.77
2018-10-09T18:51:42.025Z,30.00
2018-10-09T18:54:46.251Z,29.87
2018-10-09T18:57:50.621Z,32.87
2018-10-09T19:00:54.715Z,31.07
2018-10-09T19:03:59.140Z,31.73
2018-10-09T19:07:03.476Z,33.17
2018-10-09T19:10:08.169Z,31.60
2018-10-09T19:13:12.438Z,31.50
2018-10-09T19:16:16.742Z,27.80
2018-10-09T19:19:20.930Z,29.37
2018-10-09T19:22:25.178Z,35.80
2018-10-09T19:25:29.620Z,29.50
2018-10-09T19:28:34.202Z,33.00
2018-10-09T19:31:39.263Z,31.20
2018-10-09T19:34:43.230Z,31.23
2018-10-09T19:37:47.782Z,33.57
2018-10-09T19:40:52.107Z,30.53
2018-10-09T19:43:56.377Z,31.27
2018-10-09T19:47:00.867Z,33.67
2018-10-09T19:50:05.934Z,32.60
2018-10-09T19:53:10.443Z,32.53
2018-10-09T19:56:14.850Z,31.40
2018-10-09T19:59:19.705Z,33.17
2018-10-09T20:02:24.720Z,33.10
2018-10-09T20:05:28.917Z,30.27
2018-10-09T20:08:32.817Z,33.43
2018-10-09T20:11:37.198Z,30.93
2018-10-09T20:14:41.793Z,32.40
2018-10-09T20:17:46.104Z,30.77
2018-10-09T20:20:50.590Z,32.63
2018-10-09T20:23:55.133Z,29.87
2018-10-09T20:26:59.566Z,31.20
2018-10-09T20:30:04.569Z,32.60
2018-10-09T20:33:09.200Z,31.17
2018-10-09T20:36:13.281Z,32.67
2018-10-09T20:39:17.448Z,31.77
2018-10-09T20:42:21.396Z,34.20
2018-10-09T20:45:25.645Z,32.20
2018-10-09T20:48:29.939Z,33.30
2018-10-09T20:51:34.288Z,29.73
2018-10-09T20:54:38.470Z,33.13
2018-10-09T20:57:42.829Z,32.47
2018-10-09T21:00:46.734Z,31.87
2018-10-09T21:03:50.734Z,31.63
2018-10-09T21:06:55.272Z,31.67
2018-10-09T21:10:00.098Z,32.53
2018-10-09T21:13:04.380Z,32.27
2018-10-09T21:16:08.492Z,33.33
2018-10-09T21:19:12.493Z,33.40
2018-10-09T21:22:16.840Z,29.30
2018-10-09T21:25:22.126Z,33.00
2018-10-09T21:28:28.639Z,31.83
2018-10-09T21:31:33.001Z,33.10
2018-10-09T21:34:38.572Z,34.63
2018-10-09T21:37:42.954Z,33.90
2018-10-09T21:40:47.245Z,33.30
2018-10-09T21:43:51.274Z,33.17
2018-10-09T21:46:55.321Z,32.37
2018-10-09T21:49:59.419Z,32.17
2018-10-09T21:53:03.418Z,31.50
2018-10-09T21:56:07.503Z,32.40
2018-10-09T21:59:11.804Z,32.40
2018-10-09T22:02:16.815Z,33.03
2018-10-09T22:05:20.729Z,33.17
2018-10-09T22:08:24.672Z,34.63
2018-10-09T22:11:29.545Z,32.83
2018-10-09T22:14:33.872Z,30.50
2018-10-09T22:17:37.873Z,32.30
2018-10-09T22:20:42.056Z,32.53
2018-10-09T22:23:46.188Z,33.43
2018-10-09T22:26:51.100Z,33.10
2018-10-09T22:29:55.670Z,32.60
2018-10-09T22:33:00.335Z,34.07
2018-10-09T22:36:04.595Z,32.60
2018-10-09T22:39:09.625Z,34.77
2018-10-09T22:42:14.010Z,31.37
2018-10-09T22:45:18.380Z,35.73
2018-10-09T22:48:22.413Z,31.00
2018-10-09T22:51:26.783Z,34.47
2018-10-09T22:54:31.269Z,34.27
2018-10-09T22:57:35.755Z,34.83
2018-10-09T23:00:39.898Z,33.37
2018-10-09T23:03:44.258Z,32.97
2018-10-09T23:06:48.403Z,35.10
2018-10-09T23:09:52.792Z,33.73
2018-10-09T23:12:57.250Z,31.43
2018-10-09T23:16:01.513Z,33.70
2018-10-09T23:19:05.596Z,33.37
2018-10-09T23:22:09.648Z,33.57
2018-10-09T23:25:13.967Z,32.73
2018-10-09T23:28:18.252Z,31.30
2018-10-09T23:31:22.492Z,31.90
2018-10-09T23:34:26.867Z,33.60
2018-10-09T23:37:31.099Z,33.40
2018-10-09T23:40:37.057Z,34.10
2018-10-09T23:43:41.333Z,33.73
2018-10-09T23:46:45.314Z,30.80
2018-10-09T23:49:49.646Z,32.80
2018-10-09T23:52:53.854Z,31.53
2018-10-09T23:55:58.817Z,31.90
2018-10-09T23:59:03.127Z,33.40
